createdAt,value
2017-09-14T00:01:17.120Z,0
2017-09-14T00:02:38.615Z,0
2017-09-14T00:04:00.492Z,0
2017-09-14T00:05:22.753Z,0
2017-09-14T00:06:44.578Z,0
2017-09-14T00:08:06.393Z,0
2017-09-14T00:09:28.197Z,0
2017-09-14T00:10:49.999Z,0
2017-09-14T00:12:12.449Z,0
2017-09-14T00:13:34.927Z,0
2017-09-14T00:14:56.402Z,0
2017-09-14T00:16:18.652Z,0
2017-09-14T00:17:40.490Z,0
2017-09-14T00:19:01.992Z,0
2017-09-14T00:20:23.812Z,0
2017-09-14T00:21:46.694Z,0
2017-09-14T00:23:08.503Z,0
2017-09-14T00:24:30.023Z,0
2017-09-14T00:25:52.172Z,0
2017-09-14T00:27:13.998Z,0
2017-09-14T00:28:35.493Z,0
2017-09-14T00:29:57.652Z,0
2017-09-14T00:31:19.807Z,0
2017-09-14T00:32:41.853Z,0
2017-09-14T00:34:03.353Z,0
2017-09-14T00:35:25.480Z,0
2017-09-14T00:36:47.623Z,0
2017-09-14T00:38:10.094Z,0
2017-09-14T00:39:31.602Z,0
2017-09-14T00:40:53.463Z,0
2017-09-14T00:42:15.324Z,0
2017-09-14T00:43:37.498Z,0
2017-09-14T00:44:59.315Z,0
2017-09-14T00:46:20.795Z,0
2017-09-14T00:47:43.032Z,0
2017-09-14T00:49:05.218Z,0
2017-09-14T00:50:27.032Z,0
2017-09-14T00:51:49.482Z,0
2017-09-14T00:53:11.911Z,0
2017-09-14T00:54:34.503Z,0
2017-09-14T00:55:56.642Z,0
2017-09-14T00:57:18.133Z,0
2017-09-14T00:58:40.412Z,0
2017-09-14T01:00:02.471Z,0
2017-09-14T01:01:24.622Z,0
2017-09-14T01:02:46.429Z,0
2017-09-14T01:04:07.292Z,0
2017-09-14T01:05:29.782Z,0
2017-09-14T01:06:51.929Z,0
2017-09-14T01:08:14.057Z,0
2017-09-14T01:09:35.598Z,0
2017-09-14T01:10:58.093Z,0
2017-09-14T01:12:20.023Z,0
2017-09-14T01:13:42.266Z,0
2017-09-14T01:15:04.404Z,0
2017-09-14T01:16:26.900Z,0
2017-09-14T01:17:49.032Z,0
2017-09-14T01:19:11.159Z,0
2017-09-14T01:20:32.771Z,0
2017-09-14T01:21:55.492Z,0
2017-09-14T01:23:17.958Z,0
2017-09-14T01:24:39.438Z,0
2017-09-14T01:26:00.932Z,0
2017-09-14T01:27:23.303Z,0
2017-09-14T01:28:45.110Z,0
2017-09-14T01:30:07.340Z,0
2017-09-14T01:31:29.790Z,0
2017-09-14T01:32:52.577Z,0
2017-09-14T01:34:14.077Z,0
2017-09-14T01:35:36.521Z,0
2017-09-14T01:36:58.685Z,0
2017-09-14T01:38:20.578Z,0
2017-09-14T01:39:41.841Z,0
2017-09-14T01:41:03.338Z,0
2017-09-14T01:42:25.203Z,0
2017-09-14T01:43:46.959Z,0
2017-09-14T01:45:09.077Z,0
2017-09-14T01:46:31.222Z,0
2017-09-14T01:47:52.710Z,0
2017-09-14T01:49:15.211Z,0
2017-09-14T01:50:36.047Z,0
2017-09-14T01:51:58.172Z,0
2017-09-14T01:53:19.652Z,0
2017-09-14T01:54:42.453Z,0
2017-09-14T01:56:05.042Z,0
2017-09-14T01:57:27.163Z,0
2017-09-14T01:58:48.975Z,0
2017-09-14T02:00:10.881Z,0
2017-09-14T02:01:32.703Z,0
2017-09-14T02:02:54.192Z,0
2017-09-14T02:04:16.020Z,0
2017-09-14T02:05:38.891Z,0
2017-09-14T02:07:01.019Z,0
2017-09-14T02:08:22.535Z,0
2017-09-14T02:09:44.052Z,0
2017-09-14T02:11:06.463Z,0
2017-09-14T02:12:28.580Z,0
2017-09-14T02:13:50.405Z,0
2017-09-14T02:15:12.542Z,0
2017-09-14T02:16:35.013Z,0
2017-09-14T02:17:56.829Z,0
2017-09-14T02:19:19.279Z,0
2017-09-14T02:20:40.463Z,0
2017-09-14T02:22:03.230Z,0
2017-09-14T02:23:25.359Z,0
2017-09-14T02:24:46.846Z,0
2017-09-14T02:26:08.703Z,0
2017-09-14T02:27:30.858Z,0
2017-09-14T02:28:52.770Z,0
2017-09-14T02:30:14.275Z,0
2017-09-14T02:31:36.437Z,0
2017-09-14T02:32:58.654Z,0
2017-09-14T02:34:20.572Z,0
2017-09-14T02:35:42.244Z,0
2017-09-14T02:37:04.364Z,0
2017-09-14T02:38:26.861Z,0
2017-09-14T02:39:48.691Z,0
2017-09-14T02:41:10.825Z,0
2017-09-14T02:42:32.733Z,0
2017-09-14T02:43:54.574Z,0
2017-09-14T02:45:16.384Z,0
2017-09-14T02:46:37.903Z,0
2017-09-14T02:47:59.718Z,0
2017-09-14T02:49:21.215Z,0
2017-09-14T02:50:43.333Z,0
2017-09-14T02:52:05.139Z,0
2017-09-14T02:53:27.314Z,0
2017-09-14T02:54:49.369Z,0
2017-09-14T02:56:11.212Z,0
2017-09-14T02:57:32.377Z,0
2017-09-14T02:58:53.873Z,0
2017-09-14T03:00:15.334Z,0
2017-09-14T03:01:36.822Z,0
2017-09-14T03:02:58.323Z,0
2017-09-14T03:04:20.224Z,0
2017-09-14T03:05:43.042Z,0
2017-09-14T03:07:05.139Z,0
2017-09-14T03:08:26.414Z,0
2017-09-14T03:09:47.891Z,0
2017-09-14T03:11:09.630Z,0
2017-09-14T03:12:31.443Z,0
2017-09-14T03:13:53.562Z,0
2017-09-14T03:15:15.983Z,0
2017-09-14T03:16:38.565Z,0
2017-09-14T03:18:01.072Z,0
2017-09-14T03:19:22.363Z,0
2017-09-14T03:20:44.537Z,0
2017-09-14T03:22:07.257Z,0
2017-09-14T03:23:29.051Z,0
2017-09-14T03:24:50.880Z,0
2017-09-14T03:26:12.998Z,0
2017-09-14T03:27:35.163Z,0
2017-09-14T03:28:56.643Z,0
2017-09-14T03:30:18.777Z,0
2017-09-14T03:31:40.922Z,0
2017-09-14T03:33:03.053Z,0
2017-09-14T03:34:24.530Z,0
2017-09-14T03:35:46.366Z,0
2017-09-14T03:37:08.241Z,0
2017-09-14T03:38:30.100Z,0
2017-09-14T03:39:52.233Z,0
2017-09-14T03:41:14.066Z,0
2017-09-14T03:42:36.193Z,0
2017-09-14T03:43:58.559Z,0
2017-09-14T03:45:20.378Z,0
2017-09-14T03:46:42.202Z,0
2017-09-14T03:48:04.333Z,0
2017-09-14T03:49:26.463Z,0
2017-09-14T03:50:48.065Z,0
2017-09-14T03:52:09.577Z,0
2017-09-14T03:53:30.752Z,0
2017-09-14T03:54:53.052Z,0
2017-09-14T03:56:14.941Z,0
2017-09-14T03:57:37.066Z,0
2017-09-14T03:58:58.575Z,0
2017-09-14T04:00:20.856Z,0
2017-09-14T04:01:42.982Z,0
2017-09-14T04:03:04.832Z,0
2017-09-14T04:04:26.533Z,0
2017-09-14T04:05:48.756Z,0
2017-09-14T04:07:10.872Z,0
2017-09-14T04:08:33.039Z,0
2017-09-14T04:09:54.968Z,0
2017-09-14T04:11:17.777Z,0
2017-09-14T04:12:39.266Z,0
2017-09-14T04:14:01.088Z,0
2017-09-14T04:15:23.201Z,0
2017-09-14T04:16:45.258Z,0
2017-09-14T04:18:06.754Z,0
2017-09-14T04:19:29.203Z,4
2017-09-14T04:20:51.011Z,0
2017-09-14T04:22:13.212Z,4
2017-09-14T04:23:34.705Z,4
2017-09-14T04:24:56.508Z,4
2017-09-14T04:26:18.661Z,4
2017-09-14T04:27:41.129Z,8
2017-09-14T04:29:02.950Z,8
2017-09-14T04:30:24.773Z,8
2017-09-14T04:31:46.998Z,16
2017-09-14T04:33:09.053Z,16
2017-09-14T04:34:30.890Z,20
2017-09-14T04:35:53.359Z,24
2017-09-14T04:37:14.852Z,32
2017-09-14T04:38:37.202Z,40
2017-09-14T04:39:58.774Z,48
2017-09-14T04:41:20.897Z,60
2017-09-14T04:42:42.712Z,72
2017-09-14T04:44:04.552Z,88
2017-09-14T04:45:26.362Z,104
2017-09-14T04:46:48.842Z,128
2017-09-14T04:48:10.962Z,152
2017-09-14T04:49:33.518Z,176
2017-09-14T04:50:55.971Z,204
2017-09-14T04:52:17.811Z,240
2017-09-14T04:53:39.623Z,272
2017-09-14T04:55:01.723Z,316
2017-09-14T04:56:24.189Z,364
2017-09-14T04:57:45.742Z,412
2017-09-14T04:59:07.669Z,464
2017-09-14T05:00:29.846Z,528
2017-09-14T05:01:51.980Z,588
2017-09-14T05:03:13.813Z,656
2017-09-14T05:04:35.724Z,724
2017-09-14T05:05:58.425Z,796
2017-09-14T05:07:20.593Z,872
2017-09-14T05:08:43.101Z,944
2017-09-14T05:10:05.374Z,1024
2017-09-14T05:11:28.197Z,1108
2017-09-14T05:12:50.393Z,1192
2017-09-14T05:14:12.532Z,1280
2017-09-14T05:15:34.052Z,1372
2017-09-14T05:16:56.108Z,1464
2017-09-14T05:18:18.595Z,1556
2017-09-14T05:19:40.402Z,1644
2017-09-14T05:21:02.632Z,1740
2017-09-14T05:22:25.110Z,1836
2017-09-14T05:23:46.624Z,1932
2017-09-14T05:25:08.767Z,2040
2017-09-14T05:26:30.581Z,2144
2017-09-14T05:27:53.383Z,2244
2017-09-14T05:29:15.630Z,2364
2017-09-14T05:30:37.766Z,2460
2017-09-14T05:31:59.358Z,2568
2017-09-14T05:33:21.442Z,2680
2017-09-14T05:34:43.585Z,2784
2017-09-14T05:36:05.082Z,2924
2017-09-14T05:37:26.252Z,3064
2017-09-14T05:38:48.450Z,3176
2017-09-14T05:40:10.267Z,3324
2017-09-14T05:41:32.515Z,3464
2017-09-14T05:42:54.645Z,3656
2017-09-14T05:44:17.246Z,3956
2017-09-14T05:45:39.378Z,3992
2017-09-14T05:47:00.902Z,3956
2017-09-14T05:48:22.412Z,3976
2017-09-14T05:49:44.149Z,3900
2017-09-14T05:51:05.692Z,3436
2017-09-14T05:52:27.509Z,3392
2017-09-14T05:53:49.637Z,3456
2017-09-14T05:55:11.133Z,3644
2017-09-14T05:56:32.952Z,4700
2017-09-14T05:57:54.751Z,9996
2017-09-14T05:59:16.567Z,12384
2017-09-14T06:00:39.372Z,12704
2017-09-14T06:02:01.179Z,12736
2017-09-14T06:03:23.312Z,13088
2017-09-14T06:04:45.026Z,13664
2017-09-14T06:06:07.513Z,14048
2017-09-14T06:07:29.999Z,15136
2017-09-14T06:08:52.296Z,15360
2017-09-14T06:10:14.746Z,15968
2017-09-14T06:11:37.305Z,16544
2017-09-14T06:12:59.450Z,17152
2017-09-14T06:14:21.601Z,17792
2017-09-14T06:15:43.433Z,18240
2017-09-14T06:17:06.161Z,18880
2017-09-14T06:18:27.686Z,19392
2017-09-14T06:19:50.754Z,19936
2017-09-14T06:21:12.583Z,20384
2017-09-14T06:22:35.023Z,21024
2017-09-14T06:23:57.162Z,22176
2017-09-14T06:25:19.295Z,21984
2017-09-14T06:26:41.433Z,22752
2017-09-14T06:28:03.505Z,19680
2017-09-14T06:29:24.999Z,23392
2017-09-14T06:30:47.202Z,22656
2017-09-14T06:32:09.352Z,23136
2017-09-14T06:33:31.523Z,24448
2017-09-14T06:34:53.978Z,23968
2017-09-14T06:36:15.473Z,21184
2017-09-14T06:37:37.643Z,16416
2017-09-14T06:38:59.765Z,14464
2017-09-14T06:40:21.677Z,14216
2017-09-14T06:41:43.828Z,13872
2017-09-14T06:43:06.069Z,13860
2017-09-14T06:44:28.176Z,14364
2017-09-14T06:45:50.664Z,14956
2017-09-14T06:47:12.813Z,14424
2017-09-14T06:48:35.033Z,14268
2017-09-14T06:49:57.202Z,14548
2017-09-14T06:51:19.109Z,14276
2017-09-14T06:52:41.351Z,14052
2017-09-14T06:54:03.505Z,14652
2017-09-14T06:55:25.966Z,15904
2017-09-14T06:56:49.654Z,16032
2017-09-14T06:58:12.165Z,15456
2017-09-14T06:59:34.673Z,13472
2017-09-14T07:00:57.114Z,12884
2017-09-14T07:02:19.596Z,12380
2017-09-14T07:03:41.747Z,12512
2017-09-14T07:05:03.953Z,13188
2017-09-14T07:06:27.611Z,12848
2017-09-14T07:07:49.753Z,7764
2017-09-14T07:09:12.053Z,12508
2017-09-14T07:10:34.197Z,13464
2017-09-14T07:11:56.435Z,12336
2017-09-14T07:13:18.910Z,11544
2017-09-14T07:14:41.122Z,13800
2017-09-14T07:16:04.002Z,12692
2017-09-14T07:17:26.094Z,12308
2017-09-14T07:18:48.562Z,11160
2017-09-14T07:20:10.822Z,11372
2017-09-14T07:21:33.216Z,10812
2017-09-14T07:22:55.864Z,10448
2017-09-14T07:24:18.053Z,10208
2017-09-14T07:25:43.132Z,9972
2017-09-14T07:27:05.522Z,9660
2017-09-14T07:28:27.302Z,9064
2017-09-14T07:29:49.268Z,8680
2017-09-14T07:31:11.413Z,8236
2017-09-14T07:32:33.561Z,8048
2017-09-14T07:33:55.955Z,7804
2017-09-14T07:35:18.100Z,7420
2017-09-14T07:36:40.253Z,6996
2017-09-14T07:38:02.879Z,6100
2017-09-14T07:39:25.338Z,6488
2017-09-14T07:40:46.842Z,6428
2017-09-14T07:42:08.999Z,6300
2017-09-14T07:43:31.175Z,6256
2017-09-14T07:44:53.273Z,6092
2017-09-14T07:46:15.095Z,6040
2017-09-14T07:47:37.623Z,5980
2017-09-14T07:49:00.195Z,5968
2017-09-14T07:50:22.656Z,5988
2017-09-14T07:51:44.488Z,5980
2017-09-14T07:53:05.972Z,5980
2017-09-14T07:54:28.103Z,6104
2017-09-14T07:55:50.561Z,6008
2017-09-14T07:57:13.123Z,5976
2017-09-14T07:58:34.940Z,5912
2017-09-14T07:59:57.074Z,5904
2017-09-14T08:01:19.873Z,5980
2017-09-14T08:02:41.383Z,6400
2017-09-14T08:04:03.855Z,6820
2017-09-14T08:05:25.836Z,6276
2017-09-14T08:06:47.733Z,6044
2017-09-14T08:08:08.925Z,5968
2017-09-14T08:09:30.419Z,5892
2017-09-14T08:10:52.343Z,5752
2017-09-14T08:12:15.172Z,5788
2017-09-14T08:13:37.287Z,5920
2017-09-14T08:14:59.448Z,6060
2017-09-14T08:16:20.962Z,6108
2017-09-14T08:17:43.080Z,5852
2017-09-14T08:19:05.203Z,5736
2017-09-14T08:20:27.713Z,5792
2017-09-14T08:21:49.849Z,5908
2017-09-14T08:23:12.441Z,5928
2017-09-14T08:24:34.573Z,5860
2017-09-14T08:25:56.770Z,5832
2017-09-14T08:27:18.907Z,6964
2017-09-14T08:28:41.402Z,7008
2017-09-14T08:30:03.240Z,5876
2017-09-14T08:31:25.374Z,6140
2017-09-14T08:32:47.211Z,6592
2017-09-14T08:34:09.772Z,7528
2017-09-14T08:35:32.030Z,6448
2017-09-14T08:36:53.952Z,6508
2017-09-14T08:38:16.103Z,6872
2017-09-14T08:39:38.232Z,6112
2017-09-14T08:41:00.363Z,5868
2017-09-14T08:42:22.513Z,7076
2017-09-14T08:43:43.992Z,8072
2017-09-14T08:45:05.783Z,9352
2017-09-14T08:46:27.622Z,7844
2017-09-14T08:47:48.783Z,8092
2017-09-14T08:49:10.942Z,7052
2017-09-14T08:50:33.332Z,6692
2017-09-14T08:51:54.827Z,8076
2017-09-14T08:53:16.958Z,7860
2017-09-14T08:54:39.428Z,8228
2017-09-14T08:56:01.512Z,8528
2017-09-14T08:57:23.331Z,11568
2017-09-14T08:58:44.851Z,9748
2017-09-14T09:00:07.376Z,9800
2017-09-14T09:01:29.765Z,10548
2017-09-14T09:02:51.262Z,11236
2017-09-14T09:04:13.065Z,10132
2017-09-14T09:05:35.539Z,11360
2017-09-14T09:06:58.250Z,12156
2017-09-14T09:08:20.057Z,12124
2017-09-14T09:09:42.513Z,12780
2017-09-14T09:11:04.377Z,13096
2017-09-14T09:12:26.698Z,11144
2017-09-14T09:13:48.209Z,7044
2017-09-14T09:15:10.333Z,8448
2017-09-14T09:16:32.965Z,7408
2017-09-14T09:17:54.401Z,10688
2017-09-14T09:19:16.233Z,9912
2017-09-14T09:20:38.083Z,10496
2017-09-14T09:22:00.553Z,9904
2017-09-14T09:23:22.939Z,11148
2017-09-14T09:24:44.771Z,8496
2017-09-14T09:26:06.919Z,6796
2017-09-14T09:27:29.142Z,8220
2017-09-14T09:28:50.801Z,9544
2017-09-14T09:30:12.643Z,9092
2017-09-14T09:31:35.127Z,9216
2017-09-14T09:32:57.063Z,9492
2017-09-14T09:34:19.751Z,6480
2017-09-14T09:35:41.596Z,6472
2017-09-14T09:37:03.513Z,7172
2017-09-14T09:38:25.664Z,7864
2017-09-14T09:39:47.402Z,7528
2017-09-14T09:41:09.913Z,7648
2017-09-14T09:42:32.050Z,7952
2017-09-14T09:43:54.164Z,9508
2017-09-14T09:45:16.924Z,11168
2017-09-14T09:46:39.415Z,12064
2017-09-14T09:48:01.243Z,11980
2017-09-14T09:49:23.076Z,10080
2017-09-14T09:50:45.531Z,8056
2017-09-14T09:52:08.043Z,8276
2017-09-14T09:53:29.575Z,8060
2017-09-14T09:54:51.488Z,8284
2017-09-14T09:56:13.965Z,10108
2017-09-14T09:57:36.114Z,8152
2017-09-14T09:58:58.261Z,6964
2017-09-14T10:00:20.732Z,6728
2017-09-14T10:01:42.493Z,7624
2017-09-14T10:03:04.634Z,8104
2017-09-14T10:04:26.545Z,10820
2017-09-14T10:05:48.675Z,9592
2017-09-14T10:07:11.441Z,9364
2017-09-14T10:08:33.610Z,12304
2017-09-14T10:09:55.733Z,11564
2017-09-14T10:11:18.033Z,10388
2017-09-14T10:12:40.783Z,9820
2017-09-14T10:14:02.915Z,10560
2017-09-14T10:15:25.063Z,10704
2017-09-14T10:16:47.215Z,11936
2017-09-14T10:18:09.324Z,15392
2017-09-14T10:19:31.180Z,15808
2017-09-14T10:20:52.993Z,18560
2017-09-14T10:22:14.904Z,15696
2017-09-14T10:23:37.108Z,14500
2017-09-14T10:24:58.939Z,14380
2017-09-14T10:26:21.071Z,12660
2017-09-14T10:27:43.232Z,13208
2017-09-14T10:29:05.370Z,16416
2017-09-14T10:30:27.213Z,16000
2017-09-14T10:31:49.673Z,14716
2017-09-14T10:33:11.512Z,11212
2017-09-14T10:34:34.060Z,8424
2017-09-14T10:35:56.247Z,7232
2017-09-14T10:37:17.770Z,7724
2017-09-14T10:38:39.354Z,8672
2017-09-14T10:40:01.603Z,9148
2017-09-14T10:41:23.755Z,8004
2017-09-14T10:42:45.583Z,8208
2017-09-14T10:44:07.565Z,8244
2017-09-14T10:45:30.047Z,7512
2017-09-14T10:46:51.572Z,9744
2017-09-14T10:48:13.742Z,11436
2017-09-14T10:49:35.563Z,15340
2017-09-14T10:50:57.313Z,13836
2017-09-14T10:52:19.136Z,12020
2017-09-14T10:53:41.276Z,11380
2017-09-14T10:55:03.729Z,11784
2017-09-14T10:56:26.181Z,9360
2017-09-14T10:57:48.657Z,7544
2017-09-14T10:59:10.463Z,9972
2017-09-14T11:00:32.941Z,11088
2017-09-14T11:01:55.034Z,11660
2017-09-14T11:03:16.642Z,13136
2017-09-14T11:04:38.799Z,13360
2017-09-14T11:06:00.367Z,10564
2017-09-14T11:07:22.511Z,7928
2017-09-14T11:08:44.353Z,11400
2017-09-14T11:10:06.573Z,12972
2017-09-14T11:11:28.732Z,14172
2017-09-14T11:12:50.615Z,10020
2017-09-14T11:14:12.773Z,12340
2017-09-14T11:15:34.574Z,11580
2017-09-14T11:16:57.249Z,12072
2017-09-14T11:18:19.633Z,12052
2017-09-14T11:19:41.506Z,12516
2017-09-14T11:21:03.993Z,14888
2017-09-14T11:22:26.594Z,13880
2017-09-14T11:23:48.401Z,10892
2017-09-14T11:25:10.563Z,10168
2017-09-14T11:26:32.773Z,12384
2017-09-14T11:27:54.586Z,14348
2017-09-14T11:29:17.263Z,11524
2017-09-14T11:30:39.083Z,12312
2017-09-14T11:32:00.913Z,13184
2017-09-14T11:33:23.382Z,15028
2017-09-14T11:34:45.197Z,12920
2017-09-14T11:36:07.692Z,14268
2017-09-14T11:37:29.189Z,13968
2017-09-14T11:38:51.067Z,12740
2017-09-14T11:40:13.797Z,12772
2017-09-14T11:41:35.951Z,11120
2017-09-14T11:42:57.784Z,9116
2017-09-14T11:44:19.293Z,9220
2017-09-14T11:45:42.048Z,8560
2017-09-14T11:47:03.619Z,11836
2017-09-14T11:48:25.462Z,13044
2017-09-14T11:49:47.631Z,12760
2017-09-14T11:51:09.370Z,11028
2017-09-14T11:52:31.523Z,11852
2017-09-14T11:53:53.022Z,13528
2017-09-14T11:55:15.170Z,10256
2017-09-14T11:56:38.098Z,8064
2017-09-14T11:58:00.001Z,11004
2017-09-14T11:59:21.865Z,14956
2017-09-14T12:00:44.348Z,14896
2017-09-14T12:02:06.462Z,13864
2017-09-14T12:03:28.616Z,14608
2017-09-14T12:04:50.475Z,12932
2017-09-14T12:06:12.320Z,13676
2017-09-14T12:07:34.558Z,15492
2017-09-14T12:08:57.030Z,15128
2017-09-14T12:10:18.855Z,12876
2017-09-14T12:11:40.088Z,10960
2017-09-14T12:13:02.379Z,9164
2017-09-14T12:14:23.880Z,11152
2017-09-14T12:15:45.703Z,11144
2017-09-14T12:17:07.544Z,12368
2017-09-14T12:18:30.204Z,15776
2017-09-14T12:19:52.712Z,14164
2017-09-14T12:21:15.202Z,11672
2017-09-14T12:22:37.013Z,11984
2017-09-14T12:23:59.756Z,11492
2017-09-14T12:25:22.217Z,10384
2017-09-14T12:26:44.404Z,7932
2017-09-14T12:28:06.230Z,4692
2017-09-14T12:29:28.092Z,3848
2017-09-14T12:30:50.281Z,3000
2017-09-14T12:32:12.443Z,3400
2017-09-14T12:33:35.085Z,4232
2017-09-14T12:34:57.258Z,7640
2017-09-14T12:36:18.442Z,8996
2017-09-14T12:37:40.934Z,12188
2017-09-14T12:39:03.073Z,17152
2017-09-14T12:40:25.874Z,21568
2017-09-14T12:41:48.365Z,20800
2017-09-14T12:43:10.507Z,19008
2017-09-14T12:44:32.323Z,16288
2017-09-14T12:45:54.734Z,14436
2017-09-14T12:47:17.206Z,14344
2017-09-14T12:48:39.034Z,14144
2017-09-14T12:50:01.622Z,13548
2017-09-14T12:51:24.067Z,16736
2017-09-14T12:52:46.218Z,15280
2017-09-14T12:54:08.693Z,13744
2017-09-14T12:55:30.834Z,11892
2017-09-14T12:56:53.629Z,9744
2017-09-14T12:58:16.150Z,9244
2017-09-14T12:59:38.325Z,13604
2017-09-14T13:01:00.146Z,17536
2017-09-14T13:02:22.545Z,17856
2017-09-14T13:03:44.384Z,15784
2017-09-14T13:05:06.863Z,13276
2017-09-14T13:06:29.000Z,8592
2017-09-14T13:07:51.718Z,4104
2017-09-14T13:09:14.260Z,3512
2017-09-14T13:10:36.413Z,5220
2017-09-14T13:11:58.658Z,5984
2017-09-14T13:13:20.744Z,6428
2017-09-14T13:14:42.878Z,6256
2017-09-14T13:16:04.765Z,7400
2017-09-14T13:17:26.290Z,7680
2017-09-14T13:18:49.118Z,7200
2017-09-14T13:20:11.603Z,4304
2017-09-14T13:21:33.758Z,3340
2017-09-14T13:22:55.569Z,2940
2017-09-14T13:24:18.417Z,3116
2017-09-14T13:25:40.673Z,3348
2017-09-14T13:27:03.301Z,3864
2017-09-14T13:28:25.128Z,4728
2017-09-14T13:29:47.550Z,4412
2017-09-14T13:31:09.384Z,4420
2017-09-14T13:32:31.865Z,4172
2017-09-14T13:33:54.345Z,4296
2017-09-14T13:35:16.751Z,4560
2017-09-14T13:36:38.720Z,5240
2017-09-14T13:38:00.552Z,6440
2017-09-14T13:39:22.372Z,8188
2017-09-14T13:40:44.306Z,9444
2017-09-14T13:42:06.798Z,11488
2017-09-14T13:43:29.271Z,12648
2017-09-14T13:44:51.099Z,12124
2017-09-14T13:46:13.551Z,11804
2017-09-14T13:47:36.022Z,11744
2017-09-14T13:48:58.180Z,11036
2017-09-14T13:50:20.010Z,10080
2017-09-14T13:51:42.792Z,9544
2017-09-14T13:53:04.622Z,8908
2017-09-14T13:54:26.774Z,8348
2017-09-14T13:55:48.930Z,8792
2017-09-14T13:57:11.381Z,9524
2017-09-14T13:58:33.552Z,10488
2017-09-14T13:59:55.095Z,11468
2017-09-14T14:01:17.275Z,11552
2017-09-14T14:02:40.001Z,11588
2017-09-14T14:04:01.572Z,12100
2017-09-14T14:05:23.846Z,12048
2017-09-14T14:06:46.015Z,12280
2017-09-14T14:08:08.831Z,12820
2017-09-14T14:09:30.981Z,13428
2017-09-14T14:10:52.931Z,13856
2017-09-14T14:12:15.498Z,13712
2017-09-14T14:13:37.671Z,13484
2017-09-14T14:14:59.821Z,13304
2017-09-14T14:16:22.302Z,12996
2017-09-14T14:17:44.490Z,12956
2017-09-14T14:19:06.888Z,12532
2017-09-14T14:20:28.710Z,11936
2017-09-14T14:21:50.228Z,11728
2017-09-14T14:23:12.762Z,11416
2017-09-14T14:24:35.594Z,10716
2017-09-14T14:25:58.073Z,9868
2017-09-14T14:27:20.401Z,8944
2017-09-14T14:28:42.905Z,8348
2017-09-14T14:30:05.424Z,8076
2017-09-14T14:31:27.404Z,7680
2017-09-14T14:32:49.629Z,7596
2017-09-14T14:34:11.771Z,8032
2017-09-14T14:35:33.628Z,8468
2017-09-14T14:36:55.120Z,8764
2017-09-14T14:38:17.269Z,9284
2017-09-14T14:39:39.127Z,9768
2017-09-14T14:41:01.916Z,10344
2017-09-14T14:42:24.058Z,11124
2017-09-14T14:43:46.248Z,11652
2017-09-14T14:45:08.732Z,11512
2017-09-14T14:46:31.223Z,11904
2017-09-14T14:47:53.403Z,11292
2017-09-14T14:49:15.596Z,10448
2017-09-14T14:50:37.183Z,9484
2017-09-14T14:51:59.439Z,9008
2017-09-14T14:53:21.601Z,8832
2017-09-14T14:54:44.118Z,8916
2017-09-14T14:56:06.281Z,8772
2017-09-14T14:57:28.704Z,8772
2017-09-14T14:58:51.194Z,8976
2017-09-14T15:00:13.337Z,9936
2017-09-14T15:01:35.802Z,10092
2017-09-14T15:02:58.222Z,10144
2017-09-14T15:04:20.729Z,9640
2017-09-14T15:05:43.290Z,9344
2017-09-14T15:07:05.452Z,9276
2017-09-14T15:08:28.218Z,8952
2017-09-14T15:09:50.873Z,8612
2017-09-14T15:11:13.373Z,8280
2017-09-14T15:12:35.256Z,7868
2017-09-14T15:13:57.086Z,7728
2017-09-14T15:15:19.240Z,7620
2017-09-14T15:16:41.861Z,7544
2017-09-14T15:18:04.143Z,7476
2017-09-14T15:19:26.923Z,7348
2017-09-14T15:20:48.415Z,6912
2017-09-14T15:22:10.883Z,6648
2017-09-14T15:23:33.074Z,6488
2017-09-14T15:24:55.513Z,6500
2017-09-14T15:26:18.042Z,6644
2017-09-14T15:27:40.522Z,6484
2017-09-14T15:29:03.013Z,7204
2017-09-14T15:30:25.782Z,6984
2017-09-14T15:31:47.955Z,6188
2017-09-14T15:33:10.204Z,4948
2017-09-14T15:34:32.363Z,4572
2017-09-14T15:35:54.451Z,4492
2017-09-14T15:37:16.018Z,4448
2017-09-14T15:38:38.181Z,4240
2017-09-14T15:40:00.674Z,4492
2017-09-14T15:41:23.470Z,5128
2017-09-14T15:42:45.994Z,6120
2017-09-14T15:44:08.481Z,6256
2017-09-14T15:45:30.623Z,5460
2017-09-14T15:46:53.230Z,5912
2017-09-14T15:48:15.112Z,5984
2017-09-14T15:49:37.662Z,6060
2017-09-14T15:50:59.821Z,5632
2017-09-14T15:52:22.619Z,5436
2017-09-14T15:53:44.433Z,5624
2017-09-14T15:55:05.932Z,4708
2017-09-14T15:56:28.160Z,4064
2017-09-14T15:57:50.566Z,4144
2017-09-14T15:59:13.121Z,3824
2017-09-14T16:00:35.592Z,3284
2017-09-14T16:01:58.083Z,3312
2017-09-14T16:03:20.812Z,2480
2017-09-14T16:04:43.096Z,2660
2017-09-14T16:06:05.244Z,2512
2017-09-14T16:07:27.433Z,1960
2017-09-14T16:08:50.163Z,1776
2017-09-14T16:10:12.630Z,1896
2017-09-14T16:11:35.130Z,1732
2017-09-14T16:12:57.283Z,1680
2017-09-14T16:14:19.733Z,1828
2017-09-14T16:15:41.584Z,1476
2017-09-14T16:17:04.200Z,1580
2017-09-14T16:18:26.032Z,1148
2017-09-14T16:19:48.454Z,1112
2017-09-14T16:21:10.647Z,1312
2017-09-14T16:22:32.791Z,1584
2017-09-14T16:23:55.253Z,1780
2017-09-14T16:25:17.967Z,1416
2017-09-14T16:26:39.785Z,1288
2017-09-14T16:28:02.293Z,1696
2017-09-14T16:29:24.447Z,1676
2017-09-14T16:30:46.913Z,1584
2017-09-14T16:32:09.104Z,1564
2017-09-14T16:33:31.390Z,1504
2017-09-14T16:34:53.324Z,1216
2017-09-14T16:36:16.094Z,1104
2017-09-14T16:37:38.610Z,956
2017-09-14T16:39:00.840Z,916
2017-09-14T16:40:22.719Z,972
2017-09-14T16:41:45.323Z,932
2017-09-14T16:43:07.786Z,676
2017-09-14T16:44:29.936Z,584
2017-09-14T16:45:52.421Z,740
2017-09-14T16:47:14.490Z,776
2017-09-14T16:48:36.663Z,884
2017-09-14T16:49:59.156Z,656
2017-09-14T16:51:21.632Z,832
2017-09-14T16:52:44.083Z,900
2017-09-14T16:54:06.362Z,744
2017-09-14T16:55:28.909Z,692
2017-09-14T16:56:51.435Z,796
2017-09-14T16:58:14.182Z,900
2017-09-14T16:59:36.658Z,1016
2017-09-14T17:00:59.183Z,744
2017-09-14T17:02:21.334Z,820
2017-09-14T17:03:43.782Z,916
2017-09-14T17:05:06.282Z,852
2017-09-14T17:06:28.762Z,980
2017-09-14T17:07:50.903Z,716
2017-09-14T17:09:13.113Z,832
2017-09-14T17:10:34.946Z,608
2017-09-14T17:11:57.444Z,612
2017-09-14T17:13:19.274Z,652
2017-09-14T17:14:41.739Z,608
2017-09-14T17:16:03.248Z,528
2017-09-14T17:17:25.824Z,452
2017-09-14T17:18:47.648Z,388
2017-09-14T17:20:10.429Z,432
2017-09-14T17:21:32.264Z,472
2017-09-14T17:22:54.095Z,412
2017-09-14T17:24:16.614Z,332
2017-09-14T17:25:38.391Z,344
2017-09-14T17:26:59.888Z,328
2017-09-14T17:28:22.430Z,232
2017-09-14T17:29:44.887Z,172
2017-09-14T17:31:07.470Z,152
2017-09-14T17:32:29.692Z,148
2017-09-14T17:33:51.874Z,156
2017-09-14T17:35:14.336Z,148
2017-09-14T17:36:37.179Z,120
2017-09-14T17:37:59.353Z,96
2017-09-14T17:39:21.664Z,76
2017-09-14T17:40:44.133Z,76
2017-09-14T17:42:07.085Z,80
2017-09-14T17:43:29.550Z,84
2017-09-14T17:44:52.069Z,76
2017-09-14T17:46:14.631Z,64
2017-09-14T17:47:37.137Z,56
2017-09-14T17:48:59.637Z,56
2017-09-14T17:50:22.135Z,44
2017-09-14T17:51:44.338Z,36
2017-09-14T17:53:07.173Z,32
2017-09-14T17:54:29.663Z,28
2017-09-14T17:55:52.164Z,20
2017-09-14T17:57:14.064Z,16
2017-09-14T17:58:36.586Z,12
2017-09-14T17:59:59.090Z,12
2017-09-14T18:01:21.809Z,8
2017-09-14T18:02:44.022Z,8
2017-09-14T18:04:06.863Z,8
2017-09-14T18:05:29.364Z,4
2017-09-14T18:06:51.975Z,4
2017-09-14T18:08:14.139Z,4
2017-09-14T18:09:36.615Z,0
2017-09-14T18:10:58.776Z,4
2017-09-14T18:12:21.276Z,0
2017-09-14T18:13:43.765Z,0
2017-09-14T18:15:06.238Z,0
2017-09-14T18:16:28.714Z,0
2017-09-14T18:17:50.269Z,0
2017-09-14T18:19:12.459Z,0
2017-09-14T18:20:35.292Z,0
2017-09-14T18:21:57.476Z,0
2017-09-14T18:23:20.085Z,0
2017-09-14T18:24:42.256Z,0
2017-09-14T18:26:05.159Z,0
2017-09-14T18:27:27.657Z,0
2017-09-14T18:28:49.841Z,0
2017-09-14T18:30:11.699Z,0
2017-09-14T18:31:34.145Z,0
2017-09-14T18:32:56.636Z,0
2017-09-14T18:34:19.146Z,0
2017-09-14T18:35:41.358Z,0
2017-09-14T18:37:03.856Z,0
2017-09-14T18:38:26.364Z,0
2017-09-14T18:39:48.537Z,0